createdAt,value
2022-12-08T00:01:35.306Z,2.08
2022-12-08T00:04:03.907Z,2.08
2022-12-08T00:06:49.535Z,2.09
2022-12-08T00:09:25.819Z,2.11
2022-12-08T00:11:55.656Z,2.12
2022-12-08T00:14:26.606Z,2.11
2022-12-08T00:16:54.706Z,2.08
2022-12-08T00:19:22.480Z,2.08
2022-12-08T00:21:49.368Z,2.10
2022-12-08T00:24:16.161Z,2.12
2022-12-08T00:26:43.092Z,2.13
2022-12-08T00:29:15.886Z,2.13
2022-12-08T00:31:44.349Z,2.14
2022-12-08T00:34:14.095Z,2.13
2022-12-08T00:36:41.480Z,2.13
2022-12-08T00:39:08.737Z,2.13
2022-12-08T00:41:50.781Z,2.15
2022-12-08T00:44:19.013Z,2.17
2022-12-08T00:46:46.825Z,2.17
2022-12-08T00:49:13.952Z,2.17
2022-12-08T00:51:40.896Z,2.16
2022-12-08T00:54:08.065Z,2.17
2022-12-08T00:56:35.097Z,2.18
2022-12-08T00:59:04.415Z,2.21
2022-12-08T01:01:31.755Z,2.22
2022-12-08T01:03:58.539Z,2.23
2022-12-08T01:06:25.217Z,2.23
2022-12-08T01:08:51.974Z,2.26
2022-12-08T01:11:19.752Z,2.29
2022-12-08T01:13:47.068Z,2.30
2022-12-08T01:16:23.677Z,2.31
2022-12-08T01:18:51.311Z,2.32
2022-12-08T01:21:18.912Z,2.30
2022-12-08T01:23:46.461Z,2.29
2022-12-08T01:26:16.281Z,2.30
2022-12-08T01:28:43.959Z,2.31
2022-12-08T01:31:16.769Z,2.32
2022-12-08T01:33:44.309Z,2.32
2022-12-08T01:36:24.159Z,2.30
2022-12-08T01:38:52.450Z,2.30
2022-12-08T01:41:22.511Z,2.31
2022-12-08T01:43:58.744Z,2.32
2022-12-08T01:46:26.436Z,2.34
2022-12-08T01:48:59.354Z,2.33
2022-12-08T01:51:26.720Z,2.33
2022-12-08T01:53:53.786Z,2.31
2022-12-08T01:56:28.381Z,2.31
2022-12-08T01:58:55.972Z,2.31
2022-12-08T02:01:23.184Z,2.31
2022-12-08T02:03:58.294Z,2.29
2022-12-08T02:06:27.525Z,2.28
2022-12-08T02:08:55.335Z,2.27
2022-12-08T02:11:22.196Z,2.28
2022-12-08T02:13:52.275Z,2.28
2022-12-08T02:16:34.459Z,2.27
2022-12-08T02:19:32.318Z,2.25
2022-12-08T02:22:18.171Z,2.23
2022-12-08T02:24:50.892Z,2.23
2022-12-08T02:27:24.276Z,2.22
2022-12-08T02:29:52.054Z,2.21
2022-12-08T02:32:33.996Z,2.18
2022-12-08T02:35:06.115Z,2.17
2022-12-08T02:37:41.147Z,2.17
2022-12-08T02:40:13.962Z,2.17
2022-12-08T02:42:47.123Z,2.18
2022-12-08T02:45:21.159Z,2.17
2022-12-08T02:47:48.266Z,2.16
2022-12-08T02:50:15.740Z,2.15
2022-12-08T02:52:45.621Z,2.14
2022-12-08T02:55:21.642Z,2.11
2022-12-08T02:58:05.645Z,2.13
2022-12-08T03:00:48.989Z,2.11
2022-12-08T03:03:22.816Z,2.07
2022-12-08T03:05:56.077Z,2.03
2022-12-08T03:08:33.259Z,2.02
2022-12-08T03:11:20.503Z,2.00
2022-12-08T03:13:52.352Z,1.96
2022-12-08T03:16:24.720Z,1.93
2022-12-08T03:19:01.685Z,1.90
2022-12-08T03:21:29.951Z,1.89
2022-12-08T03:23:57.605Z,1.88
2022-12-08T03:26:31.660Z,1.88
2022-12-08T03:28:58.760Z,1.86
2022-12-08T03:31:28.895Z,1.84
2022-12-08T03:33:58.580Z,1.84
2022-12-08T03:36:25.979Z,1.86
2022-12-08T03:38:53.928Z,1.86
2022-12-08T03:41:22.497Z,1.85
2022-12-08T03:43:53.275Z,1.86
2022-12-08T03:48:48.507Z,1.84
2022-12-08T03:51:30.774Z,1.84
2022-12-08T03:53:57.471Z,1.84
2022-12-08T03:56:27.482Z,1.84
2022-12-08T03:58:55.439Z,1.84
2022-12-08T04:01:23.202Z,1.82
2022-12-08T04:03:50.401Z,1.77
2022-12-08T04:06:17.653Z,1.79
2022-12-08T04:08:44.587Z,1.80
2022-12-08T04:11:12.003Z,1.82
2022-12-08T04:13:40.318Z,1.83
2022-12-08T04:16:08.326Z,1.84
2022-12-08T04:18:36.389Z,1.84
2022-12-08T04:21:03.233Z,1.82
2022-12-08T04:23:29.973Z,1.80
2022-12-08T04:25:56.719Z,1.80
2022-12-08T04:28:23.460Z,1.81
2022-12-08T04:30:50.273Z,1.83
2022-12-08T04:33:17.096Z,1.84
2022-12-08T04:35:44.056Z,1.84
2022-12-08T04:38:10.977Z,1.82
2022-12-08T04:40:37.850Z,1.81
2022-12-08T04:43:05.089Z,1.80
2022-12-08T04:45:32.185Z,1.82
2022-12-08T04:48:00.033Z,1.83
2022-12-08T04:50:26.865Z,1.86
2022-12-08T04:52:54.221Z,1.86
2022-12-08T04:55:21.593Z,1.83
2022-12-08T04:57:48.500Z,1.83
2022-12-08T05:00:15.734Z,1.84
2022-12-08T05:02:42.935Z,1.85
2022-12-08T05:05:10.194Z,1.87
2022-12-08T05:07:36.973Z,1.87
2022-12-08T05:10:04.559Z,1.86
2022-12-08T05:12:31.548Z,1.82
2022-12-08T05:14:58.300Z,1.81
2022-12-08T05:17:25.043Z,1.80
2022-12-08T05:19:51.829Z,1.82
2022-12-08T05:22:18.658Z,1.84
2022-12-08T05:24:47.674Z,1.85
2022-12-08T05:27:14.857Z,1.86
2022-12-08T05:29:42.228Z,1.87
2022-12-08T05:32:09.269Z,1.84
2022-12-08T05:34:36.035Z,1.85
2022-12-08T05:37:02.809Z,1.87
2022-12-08T05:39:29.519Z,1.89
2022-12-08T05:41:56.246Z,1.91
2022-12-08T05:44:23.085Z,1.95
2022-12-08T05:46:49.945Z,1.96
2022-12-08T05:49:16.725Z,1.96
2022-12-08T05:51:43.598Z,1.94
2022-12-08T05:54:10.987Z,1.90
2022-12-08T05:56:37.710Z,1.88
2022-12-08T05:59:08.234Z,1.86
2022-12-08T06:01:35.674Z,1.85
2022-12-08T06:04:04.032Z,1.85
2022-12-08T06:06:31.680Z,1.84
2022-12-08T06:08:58.445Z,1.82
2022-12-08T06:11:29.000Z,1.80
2022-12-08T06:13:56.874Z,1.76
2022-12-08T06:16:24.595Z,1.73
2022-12-08T06:18:51.465Z,1.71
2022-12-08T06:21:19.047Z,1.69
2022-12-08T06:23:49.850Z,1.68
2022-12-08T06:26:16.933Z,1.70
2022-12-08T06:28:44.037Z,1.72
2022-12-08T06:31:29.269Z,1.73
2022-12-08T06:33:56.089Z,1.73
2022-12-08T06:36:26.117Z,1.72
2022-12-08T06:38:53.188Z,1.71
2022-12-08T06:41:20.168Z,1.71
2022-12-08T06:43:47.202Z,1.71
2022-12-08T06:46:17.316Z,1.73
2022-12-08T06:48:44.613Z,1.76
2022-12-08T06:51:15.858Z,1.78
2022-12-08T06:53:44.082Z,1.78
2022-12-08T06:56:12.017Z,1.79
2022-12-08T06:58:39.476Z,1.79
2022-12-08T07:01:07.996Z,1.78
2022-12-08T07:03:35.697Z,1.77
2022-12-08T07:06:04.325Z,1.77
2022-12-08T07:08:32.724Z,1.81
2022-12-08T07:10:59.724Z,1.86
2022-12-08T07:13:26.564Z,1.91
2022-12-08T07:15:53.420Z,1.98
2022-12-08T07:18:20.263Z,2.03
2022-12-08T07:20:46.998Z,2.03
2022-12-08T07:23:13.693Z,2.04
2022-12-08T07:25:40.496Z,2.05
2022-12-08T07:28:10.110Z,2.08
2022-12-08T07:30:37.327Z,2.09
2022-12-08T07:33:05.948Z,2.10
2022-12-08T07:35:35.064Z,2.08
2022-12-08T07:38:02.577Z,2.09
2022-12-08T07:40:29.661Z,2.08
2022-12-08T07:42:56.456Z,2.09
2022-12-08T07:45:29.783Z,2.10
2022-12-08T07:47:58.445Z,2.12
2022-12-08T07:50:25.225Z,2.12
2022-12-08T07:52:51.947Z,2.13
2022-12-08T07:55:18.635Z,2.13
2022-12-08T07:57:45.391Z,2.12
2022-12-08T08:00:13.001Z,2.08
2022-12-08T08:02:40.408Z,2.07
2022-12-08T08:05:07.936Z,2.09
2022-12-08T08:07:35.015Z,2.12
2022-12-08T08:10:01.944Z,2.14
2022-12-08T08:12:31.667Z,2.18
2022-12-08T08:15:00.520Z,2.22
2022-12-08T08:17:27.724Z,2.27
2022-12-08T08:19:54.641Z,2.30
2022-12-08T08:22:21.367Z,2.34
2022-12-08T08:24:48.062Z,2.38
2022-12-08T08:27:14.764Z,2.43
2022-12-08T08:29:41.482Z,2.51
2022-12-08T08:32:08.349Z,2.61
2022-12-08T08:34:35.115Z,2.69
2022-12-08T08:37:01.952Z,2.76
2022-12-08T08:39:30.381Z,2.83
2022-12-08T08:41:57.518Z,2.87
2022-12-08T08:44:24.290Z,2.90
2022-12-08T08:46:51.081Z,2.93
2022-12-08T08:49:18.747Z,2.94
2022-12-08T08:51:45.713Z,2.94
2022-12-08T08:54:12.630Z,2.97
2022-12-08T08:56:39.381Z,3.02
2022-12-08T08:59:06.242Z,3.07
2022-12-08T09:01:33.993Z,3.15
2022-12-08T09:04:01.588Z,3.20
2022-12-08T09:06:28.666Z,3.24
2022-12-08T09:08:56.186Z,3.26
2022-12-08T09:11:24.522Z,3.29
2022-12-08T09:13:53.591Z,3.40
2022-12-08T09:16:21.383Z,3.55
2022-12-08T09:18:49.818Z,3.67
2022-12-08T09:21:22.724Z,3.74
2022-12-08T09:23:51.253Z,3.77
2022-12-08T09:26:18.078Z,3.77
2022-12-08T09:28:46.732Z,3.81
2022-12-08T09:31:14.731Z,3.86
2022-12-08T09:33:42.056Z,3.87
2022-12-08T09:36:09.756Z,3.88
2022-12-08T09:38:37.220Z,3.91
2022-12-08T09:41:14.487Z,3.96
2022-12-08T09:43:51.606Z,4.00
2022-12-08T09:46:20.563Z,4.08
2022-12-08T09:48:56.092Z,4.14
2022-12-08T09:51:26.123Z,4.16
2022-12-08T09:54:07.881Z,4.15
2022-12-08T09:56:37.342Z,4.13
2022-12-08T09:59:21.107Z,4.16
2022-12-08T10:01:48.039Z,4.20
2022-12-08T10:04:34.238Z,4.24
2022-12-08T10:07:13.786Z,4.30
2022-12-08T10:10:02.436Z,4.34
2022-12-08T10:13:00.092Z,4.41
2022-12-08T10:15:32.299Z,4.46
2022-12-08T10:18:03.044Z,4.52
2022-12-08T10:20:38.647Z,4.55
2022-12-08T10:23:16.476Z,4.57
2022-12-08T10:25:49.409Z,4.55
2022-12-08T10:28:16.343Z,4.53
2022-12-08T10:30:43.254Z,4.54
2022-12-08T10:33:15.833Z,4.55
2022-12-08T10:35:46.207Z,4.53
2022-12-08T10:38:31.354Z,4.53
2022-12-08T10:41:04.838Z,4.55
2022-12-08T10:43:33.315Z,4.53
2022-12-08T10:46:18.340Z,4.56
2022-12-08T10:48:51.820Z,4.58
2022-12-08T10:51:34.492Z,4.59
2022-12-08T10:54:01.598Z,4.61
2022-12-08T10:56:30.783Z,4.59
2022-12-08T10:59:13.702Z,4.60
2022-12-08T11:01:41.616Z,4.58
2022-12-08T11:04:20.324Z,4.57
2022-12-08T11:06:48.988Z,4.59
2022-12-08T11:09:15.698Z,4.57
2022-12-08T11:12:07.047Z,4.55
2022-12-08T11:14:51.375Z,4.52
2022-12-08T11:17:26.729Z,4.54
2022-12-08T11:20:04.302Z,4.52
2022-12-08T11:22:35.168Z,4.51
2022-12-08T11:25:18.784Z,4.54
2022-12-08T11:27:49.385Z,4.56
2022-12-08T11:30:20.930Z,4.56
2022-12-08T11:32:54.962Z,4.58
2022-12-08T11:35:28.977Z,4.60
2022-12-08T11:38:13.733Z,4.61
2022-12-08T11:40:48.020Z,4.59
2022-12-08T11:43:35.651Z,4.56
2022-12-08T11:46:19.286Z,4.56
2022-12-08T11:49:05.619Z,4.50
2022-12-08T11:51:37.250Z,4.38
2022-12-08T11:54:04.119Z,4.30
2022-12-08T11:56:38.764Z,4.26
2022-12-08T11:59:28.992Z,4.21
2022-12-08T12:01:58.071Z,4.13
2022-12-08T12:04:35.971Z,4.07
2022-12-08T12:07:33.960Z,4.01
2022-12-08T12:10:18.501Z,4.01
2022-12-08T12:13:15.021Z,3.99
2022-12-08T12:16:15.078Z,3.96
2022-12-08T12:18:50.448Z,3.92
2022-12-08T12:21:23.312Z,3.87
2022-12-08T12:23:53.519Z,3.86
2022-12-08T12:26:23.967Z,3.79
2022-12-08T12:28:55.749Z,3.76
2022-12-08T12:31:26.605Z,3.73
2022-12-08T12:34:03.291Z,3.74
2022-12-08T12:36:32.434Z,3.74
2022-12-08T12:39:01.192Z,3.72
2022-12-08T12:41:32.304Z,3.67
2022-12-08T12:44:14.215Z,3.63
2022-12-08T12:46:49.409Z,3.57
2022-12-08T12:49:39.953Z,3.52
2022-12-08T12:52:06.848Z,3.49
2022-12-08T12:54:33.595Z,3.50
2022-12-08T12:57:04.763Z,3.48
2022-12-08T12:59:35.093Z,3.48
2022-12-08T13:02:02.826Z,3.49
2022-12-08T13:04:33.871Z,3.47
2022-12-08T13:07:01.040Z,3.46
2022-12-08T13:09:30.953Z,3.44
2022-12-08T13:12:01.886Z,3.41
2022-12-08T13:14:30.285Z,3.36
2022-12-08T13:16:59.220Z,3.34
2022-12-08T13:19:29.469Z,3.36
2022-12-08T13:21:56.299Z,3.37
2022-12-08T13:24:23.982Z,3.38
2022-12-08T13:27:11.199Z,3.33
2022-12-08T13:29:39.173Z,3.28
2022-12-08T13:32:09.869Z,3.25
2022-12-08T13:34:50.660Z,3.18
2022-12-08T13:37:24.349Z,3.14
2022-12-08T13:39:58.379Z,3.10
2022-12-08T13:42:32.683Z,3.03
2022-12-08T13:45:27.918Z,3.04
2022-12-08T13:48:36.749Z,3.03
2022-12-08T13:57:10.772Z,2.91
2022-12-08T13:59:43.501Z,2.87
2022-12-08T14:02:20.702Z,2.83
2022-12-08T14:05:17.475Z,2.79
2022-12-08T14:07:35.101Z,2.81
2022-12-08T14:10:03.789Z,2.84
2022-12-08T14:12:31.728Z,2.85
2022-12-08T14:15:14.961Z,2.84
2022-12-08T14:17:52.300Z,2.87
2022-12-08T14:20:23.923Z,2.81
2022-12-08T14:22:52.358Z,2.61
2022-12-08T14:25:20.402Z,2.46
2022-12-08T14:27:48.816Z,2.30
2022-12-08T14:30:21.256Z,2.15
2022-12-08T14:32:52.766Z,2.08
2022-12-08T14:35:26.522Z,2.09
2022-12-08T14:37:57.747Z,2.11
2022-12-08T14:40:34.822Z,2.08
2022-12-08T14:43:13.749Z,2.01
2022-12-08T14:45:40.500Z,1.99
2022-12-08T14:48:25.689Z,1.99
2022-12-08T14:51:15.458Z,1.99
2022-12-08T14:53:59.999Z,1.97
2022-12-08T14:56:50.440Z,1.96
2022-12-08T14:59:25.394Z,2.02
2022-12-08T15:02:09.012Z,2.06
2022-12-08T15:04:39.503Z,2.00
2022-12-08T15:07:13.680Z,1.91
2022-12-08T15:09:41.596Z,1.89
2022-12-08T15:12:15.713Z,1.86
2022-12-08T15:14:42.365Z,1.84
2022-12-08T15:17:28.944Z,1.81
2022-12-08T15:19:57.318Z,1.84
2022-12-08T15:22:25.011Z,1.86
2022-12-08T15:24:51.786Z,1.82
2022-12-08T15:27:20.353Z,1.76
2022-12-08T15:29:48.321Z,1.73
2022-12-08T15:32:19.932Z,1.73
2022-12-08T15:34:47.239Z,1.68
2022-12-08T15:37:21.649Z,1.66
2022-12-08T15:39:49.064Z,1.69
2022-12-08T15:42:15.880Z,1.75
2022-12-08T15:44:42.893Z,1.76
2022-12-08T15:47:18.160Z,1.74
2022-12-08T15:49:45.926Z,1.71
2022-12-08T15:52:15.599Z,1.69
2022-12-08T15:54:42.582Z,1.74
2022-12-08T15:57:53.086Z,1.78
2022-12-08T16:00:50.985Z,1.77
2022-12-08T16:09:13.300Z,1.71
2022-12-08T16:12:06.673Z,1.74
2022-12-08T16:17:22.131Z,1.88
2022-12-08T16:19:49.491Z,1.92
2022-12-08T16:25:24.404Z,1.87
2022-12-08T16:28:12.424Z,1.89
2022-12-08T16:30:40.887Z,1.96
2022-12-08T16:33:07.889Z,2.06
2022-12-08T16:35:34.632Z,2.14
2022-12-08T16:38:01.358Z,2.21
2022-12-08T16:41:03.888Z,2.29
2022-12-08T16:43:32.660Z,2.35
2022-12-08T16:45:59.692Z,2.39
2022-12-08T16:48:26.550Z,2.42
2022-12-08T16:50:54.195Z,2.45
2022-12-08T16:53:20.918Z,2.47
2022-12-08T16:55:49.232Z,2.51
2022-12-08T16:58:18.522Z,2.56
2022-12-08T17:00:45.399Z,2.61
2022-12-08T17:03:14.624Z,2.64
2022-12-08T17:05:41.605Z,2.65
2022-12-08T17:08:08.394Z,2.64
2022-12-08T17:10:39.415Z,2.61
2022-12-08T17:13:06.355Z,2.58
2022-12-08T17:15:33.161Z,2.56
2022-12-08T17:17:59.905Z,2.56
2022-12-08T17:20:28.882Z,2.57
2022-12-08T17:22:58.113Z,2.60
2022-12-08T17:25:26.940Z,2.61
2022-12-08T17:27:54.090Z,2.59
2022-12-08T17:30:20.912Z,2.58
2022-12-08T17:32:47.629Z,2.56
2022-12-08T17:35:15.235Z,2.52
2022-12-08T17:37:43.603Z,2.48
2022-12-08T17:40:11.445Z,2.46
2022-12-08T17:42:38.800Z,2.43
2022-12-08T17:45:07.756Z,2.42
2022-12-08T17:47:35.053Z,2.41
2022-12-08T17:50:02.140Z,2.37
2022-12-08T17:52:29.065Z,2.36
2022-12-08T17:54:55.882Z,2.33
2022-12-08T17:57:22.721Z,2.27
2022-12-08T17:59:49.420Z,2.24
2022-12-08T18:02:16.417Z,2.18
2022-12-08T18:04:43.156Z,2.15
2022-12-08T18:07:09.881Z,2.14
2022-12-08T18:09:36.641Z,2.19
2022-12-08T18:12:03.461Z,2.22
2022-12-08T18:14:30.363Z,2.27
2022-12-08T18:16:57.140Z,2.30
2022-12-08T18:19:23.971Z,2.32
2022-12-08T18:21:50.900Z,2.31
2022-12-08T18:24:22.283Z,2.32
2022-12-08T18:26:52.200Z,2.33
2022-12-08T18:29:21.322Z,2.33
2022-12-08T18:31:48.481Z,2.36
2022-12-08T18:34:15.307Z,2.37
2022-12-08T18:36:42.312Z,2.37
2022-12-08T18:39:21.070Z,2.38
2022-12-08T18:41:47.772Z,2.37
2022-12-08T18:44:14.442Z,2.35
2022-12-08T18:46:41.168Z,2.34
2022-12-08T18:49:12.315Z,2.37
2022-12-08T18:51:39.177Z,2.39
2022-12-08T18:54:05.897Z,2.42
2022-12-08T18:56:34.835Z,2.45
2022-12-08T18:59:05.576Z,2.46
2022-12-08T19:01:33.663Z,2.45
2022-12-08T19:04:27.396Z,2.46
2022-12-08T19:06:48.546Z,2.48
2022-12-08T19:09:30.905Z,2.52
2022-12-08T19:11:58.129Z,2.54
2022-12-08T19:14:28.271Z,2.56
2022-12-08T19:16:56.545Z,2.59
2022-12-08T19:19:24.114Z,2.59
2022-12-08T19:21:51.257Z,2.59
2022-12-08T19:24:18.408Z,2.56
2022-12-08T19:26:45.502Z,2.53
2022-12-08T19:29:12.516Z,2.51
2022-12-08T19:31:39.744Z,2.52
2022-12-08T19:34:08.650Z,2.54
2022-12-08T19:36:39.795Z,2.54
2022-12-08T19:39:21.775Z,2.56
2022-12-08T19:42:04.261Z,2.57
2022-12-08T19:44:54.308Z,2.57
2022-12-08T19:47:24.157Z,2.55
2022-12-08T19:49:51.945Z,2.54
2022-12-08T19:52:18.984Z,2.54
2022-12-08T19:54:46.374Z,2.57
2022-12-08T19:57:29.044Z,2.58
2022-12-08T19:59:58.305Z,2.59
2022-12-08T20:02:25.343Z,2.62
2022-12-08T20:04:52.364Z,2.64
2022-12-08T20:07:21.960Z,2.65
2022-12-08T20:09:48.790Z,2.65
2022-12-08T20:12:15.496Z,2.65
2022-12-08T20:14:45.906Z,2.66
2022-12-08T20:17:28.588Z,2.69
2022-12-08T20:19:55.310Z,2.73
2022-12-08T20:22:22.039Z,2.76
2022-12-08T20:24:57.229Z,2.77
2022-12-08T20:27:28.585Z,2.77
2022-12-08T20:30:16.494Z,2.76
2022-12-08T20:32:44.354Z,2.77
2022-12-08T20:35:11.074Z,2.77
2022-12-08T20:37:37.781Z,2.76
2022-12-08T20:40:06.749Z,2.77
2022-12-08T20:42:33.476Z,2.79
2022-12-08T20:45:00.191Z,2.80
2022-12-08T20:47:27.119Z,2.77
2022-12-08T20:49:55.426Z,2.73
2022-12-08T20:52:22.210Z,2.70
2022-12-08T20:54:48.997Z,2.67
2022-12-08T20:57:15.800Z,2.66
2022-12-08T20:59:43.356Z,2.67
2022-12-08T21:02:11.185Z,2.71
2022-12-08T21:04:38.048Z,2.72
2022-12-08T21:07:04.883Z,2.73
2022-12-08T21:09:31.700Z,2.73
2022-12-08T21:11:58.577Z,2.73
2022-12-08T21:14:25.321Z,2.70
2022-12-08T21:16:54.581Z,2.69
2022-12-08T21:19:37.985Z,2.68
2022-12-08T21:22:04.751Z,2.70
2022-12-08T21:24:34.424Z,2.72
2022-12-08T21:27:01.849Z,2.73
2022-12-08T21:29:30.250Z,2.73
2022-12-08T21:32:08.894Z,2.73
2022-12-08T21:34:37.416Z,2.71
2022-12-08T21:37:04.336Z,2.68
2022-12-08T21:39:31.190Z,2.65
2022-12-08T21:42:13.793Z,2.62
2022-12-08T21:44:40.775Z,2.61
2022-12-08T21:47:07.924Z,2.63
2022-12-08T21:49:34.762Z,2.67
2022-12-08T21:52:01.565Z,2.67
2022-12-08T21:54:28.646Z,2.72
2022-12-08T21:56:55.866Z,2.72
2022-12-08T21:59:22.688Z,2.69
2022-12-08T22:01:49.533Z,2.64
2022-12-08T22:04:18.864Z,2.61
2022-12-08T22:06:45.970Z,2.60
2022-12-08T22:09:15.218Z,2.58
2022-12-08T22:11:43.254Z,2.62
2022-12-08T22:14:14.422Z,2.65
2022-12-08T22:16:43.014Z,2.67
2022-12-08T22:19:10.147Z,2.70
2022-12-08T22:21:38.346Z,2.71
2022-12-08T22:24:05.731Z,2.71
2022-12-08T22:26:32.692Z,2.69
2022-12-08T22:29:00.473Z,2.68
2022-12-08T22:31:28.117Z,2.67
2022-12-08T22:33:55.938Z,2.67
2022-12-08T22:36:25.425Z,2.66
2022-12-08T22:38:53.403Z,2.64
2022-12-08T22:41:21.750Z,2.63
2022-12-08T22:43:49.179Z,2.63
2022-12-08T22:46:17.425Z,2.64
2022-12-08T22:48:44.608Z,2.58
2022-12-08T22:51:11.361Z,2.59
2022-12-08T22:53:38.777Z,2.58
2022-12-08T22:56:07.469Z,2.59
2022-12-08T22:58:35.378Z,2.61
2022-12-08T23:01:02.532Z,2.64
2022-12-08T23:03:29.544Z,2.66
2022-12-08T23:05:57.386Z,2.66
2022-12-08T23:08:24.885Z,2.65
2022-12-08T23:10:53.823Z,2.58
2022-12-08T23:13:21.620Z,2.55
2022-12-08T23:15:48.570Z,2.52
2022-12-08T23:18:19.140Z,2.51
2022-12-08T23:20:46.957Z,2.53
2022-12-08T23:23:14.526Z,2.57
2022-12-08T23:25:42.345Z,2.61
2022-12-08T23:28:09.926Z,2.65
2022-12-08T23:30:40.139Z,2.64
2022-12-08T23:33:07.016Z,2.65
2022-12-08T23:35:34.068Z,2.63
2022-12-08T23:38:01.204Z,2.64
2022-12-08T23:40:28.281Z,2.67
2022-12-08T23:42:55.124Z,2.70
2022-12-08T23:45:22.082Z,2.75
2022-12-08T23:47:49.020Z,2.79
2022-12-08T23:50:15.937Z,2.80
2022-12-08T23:52:42.727Z,2.80
2022-12-08T23:55:11.302Z,2.81
2022-12-08T23:57:39.183Z,2.80
